createdAt,value
2023-11-19T00:01:48.232Z,100
2023-11-19T00:06:48.599Z,100
2023-11-19T00:16:46.869Z,100
2023-11-19T00:21:46.976Z,100
2023-11-19T00:26:46.835Z,100
2023-11-19T00:31:46.768Z,100
2023-11-19T00:36:47.084Z,100
2023-11-19T00:41:49.110Z,100
2023-11-19T00:46:48.297Z,100
2023-11-19T00:51:46.904Z,100
2023-11-19T00:56:46.878Z,100
2023-11-19T01:01:49.061Z,100
2023-11-19T01:06:50.048Z,100
2023-11-19T01:11:49.033Z,100
2023-11-19T01:16:49.940Z,100
2023-11-19T01:21:46.875Z,100
2023-11-19T01:26:48.758Z,100
2023-11-19T01:31:47.059Z,100
2023-11-19T01:36:47.762Z,100
2023-11-19T01:41:46.913Z,100
2023-11-19T01:46:48.476Z,100
2023-11-19T01:51:47.432Z,100
2023-11-19T01:56:47.477Z,100
2023-11-19T02:01:47.068Z,100
2023-11-19T02:06:50.590Z,100
2023-11-19T02:11:50.239Z,100
2023-11-19T02:16:47.259Z,100
2023-11-19T02:21:47.251Z,100
2023-11-19T02:26:50.866Z,100
2023-11-19T02:31:47.498Z,100
2023-11-19T02:36:48.381Z,100
2023-11-19T02:41:47.010Z,100
2023-11-19T02:46:49.296Z,100
2023-11-19T02:51:47.313Z,100
2023-11-19T02:56:48.930Z,100
2023-11-19T03:01:51.291Z,100
2023-11-19T03:06:46.958Z,100
2023-11-19T03:11:47.322Z,100
2023-11-19T03:16:49.778Z,100
2023-11-19T03:21:47.074Z,100
2023-11-19T03:26:47.124Z,100
2023-11-19T03:31:51.134Z,100
2023-11-19T03:36:46.946Z,100
2023-11-19T03:41:50.191Z,100
2023-11-19T03:46:47.494Z,100
2023-11-19T03:51:47.185Z,100
2023-11-19T03:56:46.972Z,100
2023-11-19T04:01:47.108Z,100
2023-11-19T04:06:54.482Z,100
2023-11-19T04:11:48.031Z,100
2023-11-19T04:16:46.870Z,100
2023-11-19T04:21:48.425Z,100
2023-11-19T04:26:48.960Z,100
2023-11-19T04:31:46.881Z,100
2023-11-19T04:36:46.931Z,100
2023-11-19T04:41:54.563Z,100
2023-11-19T04:46:56.818Z,100
2023-11-19T04:51:57.425Z,100
2023-11-19T04:56:59.498Z,100
2023-11-19T05:01:55.688Z,100
2023-11-19T05:06:55.204Z,100
2023-11-19T05:11:58.144Z,100
2023-11-19T05:16:55.211Z,100
2023-11-19T05:21:56.018Z,100
2023-11-19T05:26:55.276Z,100
2023-11-19T05:31:56.368Z,100
2023-11-19T05:36:54.472Z,100
2023-11-19T05:41:54.014Z,100
2023-11-19T05:46:54.881Z,100
2023-11-19T05:51:56.707Z,100
2023-11-19T05:56:56.030Z,100
2023-11-19T06:01:53.328Z,100
2023-11-19T06:06:53.098Z,100
2023-11-19T06:11:58.123Z,100
2023-11-19T06:16:53.621Z,100
2023-11-19T06:21:52.773Z,100
2023-11-19T06:26:52.738Z,100
2023-11-19T06:31:54.633Z,100
2023-11-19T06:36:53.965Z,100
2023-11-19T06:41:53.281Z,100
2023-11-19T06:46:53.243Z,100
2023-11-19T06:51:56.738Z,100
2023-11-19T06:56:52.326Z,100
2023-11-19T07:01:54.066Z,100
2023-11-19T07:06:53.243Z,100
2023-11-19T07:11:52.673Z,100
2023-11-19T07:16:51.472Z,100
2023-11-19T07:21:55.354Z,100
2023-11-19T07:26:52.037Z,100
2023-11-19T07:31:50.037Z,100
2023-11-19T07:36:50.345Z,100
2023-11-19T07:41:49.634Z,100
2023-11-19T07:46:49.499Z,100
2023-11-19T07:51:49.141Z,100
2023-11-19T07:56:50.753Z,100
2023-11-19T08:01:48.775Z,100
2023-11-19T08:06:48.649Z,100
2023-11-19T08:11:50.835Z,100
2023-11-19T08:16:48.634Z,100
2023-11-19T08:21:48.249Z,100
2023-11-19T08:27:02.808Z,99.08789
2023-11-19T08:31:47.846Z,96.22852
2023-11-19T08:36:47.721Z,92.37402
2023-11-19T08:41:48.571Z,92.59473
2023-11-19T08:46:50.785Z,90.95801
2023-11-19T08:51:47.240Z,90.02441
2023-11-19T08:56:48.450Z,88.12012
2023-11-19T09:01:47.149Z,88.53906
2023-11-19T09:06:47.718Z,90.78027
2023-11-19T09:11:47.364Z,93.79785
2023-11-19T09:16:47.134Z,95.55469
2023-11-19T09:21:50.093Z,96.58398
2023-11-19T09:26:47.177Z,96.14941
2023-11-19T09:31:47.194Z,95.99902
2023-11-19T09:36:47.306Z,95.9873
2023-11-19T09:41:47.150Z,95.80566
2023-11-19T09:46:47.419Z,92.56348
2023-11-19T09:51:47.160Z,89.47168
2023-11-19T09:56:48.538Z,89.53125
2023-11-19T10:01:47.762Z,86.20508
2023-11-19T10:06:47.547Z,80.38867
2023-11-19T10:11:47.312Z,79.42676
2023-11-19T10:16:49.642Z,76.41797
2023-11-19T10:21:47.307Z,81.87305
2023-11-19T10:26:47.397Z,86.07422
2023-11-19T10:31:57.171Z,88.11523
2023-11-19T10:36:55.174Z,88.42676
2023-11-19T10:41:47.284Z,88.86426
2023-11-19T10:46:54.570Z,85.91699
2023-11-19T10:51:49.857Z,87.84863
2023-11-19T10:56:49.141Z,89.05371
2023-11-19T11:01:49.957Z,90.06738
2023-11-19T11:06:47.762Z,91.42871
2023-11-19T11:11:51.301Z,91.27832
2023-11-19T11:16:48.292Z,91.1416
2023-11-19T11:21:49.463Z,92.2832
2023-11-19T11:27:14.286Z,91.26953
2023-11-19T11:31:53.431Z,90.73047
2023-11-19T11:36:52.435Z,90.68555
2023-11-19T11:41:47.238Z,88.94727
2023-11-19T11:47:04.250Z,90.69824
2023-11-19T11:52:15.218Z,88.86328
2023-11-19T12:01:57.200Z,85.52051
2023-11-19T12:06:47.252Z,84.23535
2023-11-19T12:11:51.976Z,84.83105
2023-11-19T12:16:48.279Z,84.5791
2023-11-19T12:21:48.440Z,85.13379
2023-11-19T12:26:55.069Z,84.48438
2023-11-19T12:31:49.084Z,84.06445
2023-11-19T12:36:50.236Z,77.14844
2023-11-19T12:42:00.308Z,74.87891
2023-11-19T12:46:47.316Z,80.62207
2023-11-19T12:51:48.652Z,84.20898
2023-11-19T12:56:56.391Z,84.64648
2023-11-19T13:01:57.413Z,86.17969
2023-11-19T13:11:51.726Z,87.38672
2023-11-19T13:16:47.659Z,87.34668
2023-11-19T13:21:48.157Z,86.74902
2023-11-19T13:26:47.341Z,87.26953
2023-11-19T13:31:47.545Z,86.04395
2023-11-19T13:36:47.350Z,86.41699
2023-11-19T13:41:47.401Z,85.90625
2023-11-19T13:46:49.148Z,87.27832
2023-11-19T13:51:47.428Z,88.23047
2023-11-19T13:56:47.715Z,88.2334
2023-11-19T14:01:47.363Z,88.94824
2023-11-19T14:06:49.640Z,88.47754
2023-11-19T14:11:47.515Z,88.9541
2023-11-19T14:16:47.442Z,89.32324
2023-11-19T14:21:48.705Z,93.40918
2023-11-19T14:26:48.074Z,95.71973
2023-11-19T14:31:47.452Z,92.58496
2023-11-19T14:36:47.467Z,94.84277
2023-11-19T14:41:47.523Z,95.35645
2023-11-19T14:46:47.551Z,94.13379
2023-11-19T14:51:49.036Z,94.15137
2023-11-19T14:56:47.435Z,95.44434
2023-11-19T15:01:49.671Z,98.79004
2023-11-19T15:06:47.445Z,99.94336
2023-11-19T15:11:47.522Z,100
2023-11-19T15:16:47.656Z,100
2023-11-19T15:21:47.446Z,100
2023-11-19T15:26:47.579Z,100
2023-11-19T15:31:47.957Z,100
2023-11-19T15:36:47.618Z,100
2023-11-19T15:41:47.440Z,100
2023-11-19T15:46:48.870Z,100
2023-11-19T15:51:47.436Z,100
2023-11-19T15:56:48.027Z,100
2023-11-19T16:01:47.482Z,100
2023-11-19T16:06:48.034Z,100
2023-11-19T16:11:52.021Z,100
2023-11-19T16:16:47.546Z,100
2023-11-19T16:21:48.593Z,100
2023-11-19T16:26:47.504Z,100
2023-11-19T16:31:49.375Z,100
2023-11-19T16:36:47.456Z,100
2023-11-19T16:41:47.524Z,100
2023-11-19T16:46:47.578Z,100
2023-11-19T16:51:49.282Z,100
2023-11-19T16:56:48.493Z,100
2023-11-19T17:01:48.896Z,100
2023-11-19T17:06:48.050Z,100
2023-11-19T17:11:47.548Z,100
2023-11-19T17:16:47.751Z,100
2023-11-19T17:21:47.552Z,100
2023-11-19T17:26:47.566Z,100
2023-11-19T17:31:47.530Z,100
2023-11-19T17:36:47.592Z,100
2023-11-19T17:41:47.603Z,100
2023-11-19T17:46:47.586Z,100
2023-11-19T17:51:47.602Z,100
2023-11-19T17:56:47.566Z,100
2023-11-19T18:01:47.555Z,100
2023-11-19T18:06:48.359Z,100
2023-11-19T18:11:47.604Z,100
2023-11-19T18:16:47.611Z,100
2023-11-19T18:21:47.763Z,100
2023-11-19T18:26:47.644Z,100
2023-11-19T18:31:47.612Z,100
2023-11-19T18:36:47.621Z,100
2023-11-19T18:41:47.622Z,100
2023-11-19T18:46:47.779Z,100
2023-11-19T18:51:47.541Z,100
2023-11-19T18:56:47.590Z,100
2023-11-19T19:01:47.620Z,100
2023-11-19T19:06:49.881Z,100
2023-11-19T19:11:48.820Z,100
2023-11-19T19:16:47.601Z,100
2023-11-19T19:21:47.668Z,100
2023-11-19T19:26:47.709Z,100
2023-11-19T19:31:48.022Z,100
2023-11-19T19:36:47.692Z,100
2023-11-19T19:41:47.617Z,100
2023-11-19T19:46:48.175Z,100
2023-11-19T19:51:47.690Z,100
2023-11-19T19:56:47.731Z,100
2023-11-19T20:01:52.249Z,100
2023-11-19T20:06:47.690Z,100
2023-11-19T20:11:48.993Z,100
2023-11-19T20:16:47.689Z,100
2023-11-19T20:21:47.726Z,100
2023-11-19T20:26:53.948Z,100
2023-11-19T20:31:49.455Z,100
2023-11-19T20:36:47.771Z,100
2023-11-19T20:41:47.773Z,100
2023-11-19T20:46:47.668Z,100
2023-11-19T20:51:47.755Z,100
2023-11-19T20:56:47.659Z,100
2023-11-19T21:01:47.866Z,100
2023-11-19T21:11:47.705Z,100
2023-11-19T21:16:47.800Z,100
2023-11-19T21:21:47.976Z,100
2023-11-19T21:26:47.743Z,100
2023-11-19T21:36:47.790Z,100
2023-11-19T21:41:49.394Z,100
2023-11-19T21:46:47.793Z,100
2023-11-19T21:51:47.991Z,100
2023-11-19T21:56:47.719Z,100
2023-11-19T22:01:47.827Z,100
2023-11-19T22:06:47.829Z,100
2023-11-19T22:11:48.442Z,100
2023-11-19T22:16:48.088Z,100
2023-11-19T22:21:47.938Z,100
2023-11-19T22:26:47.814Z,100
2023-11-19T22:31:47.826Z,100
2023-11-19T22:36:48.035Z,100
2023-11-19T22:41:47.728Z,100
2023-11-19T22:46:47.889Z,100
2023-11-19T22:51:48.656Z,100
2023-11-19T22:56:47.722Z,100
2023-11-19T23:01:47.835Z,100
2023-11-19T23:06:48.660Z,100
2023-11-19T23:11:47.787Z,100
2023-11-19T23:16:47.889Z,100
2023-11-19T23:21:47.957Z,100
2023-11-19T23:26:47.756Z,100
2023-11-19T23:31:48.347Z,100
2023-11-19T23:36:47.876Z,100
2023-11-19T23:41:47.875Z,100
2023-11-19T23:46:47.957Z,100
2023-11-19T23:51:47.809Z,100
2023-11-19T23:56:47.939Z,100
